Time;durP1;ratioP1;P1;durP2;ratioP2;P2;SDS_P1;SDS_P2;PMS_P1;PMS_P2;Temp;Humidity;BMP_temperature;BMP_pressure;BME280_temperature;BME280_humidity;BME280_pressure;Samples;Min_cycle;Max_cycle;Signal;HPM_P1;HPM_P2
2021/05/17 00:01:46;;;;;;;3.67;2.00;;;;;;;24.96;44.22;98446.19;124301;1104;64194;-63
2021/05/17 00:04:15;;;;;;;7.60;2.10;;;;;;;24.95;44.26;98433.91;124349;1096;64460;-63
2021/05/17 00:06:59;;;;;;;3.23;1.80;;;;;;;24.95;44.33;98434.70;124181;1096;64365;-64
2021/05/17 00:09:30;;;;;;;2.37;1.63;;;;;;;24.95;44.38;98424.06;124280;1104;64319;-62
2021/05/17 00:12:00;;;;;;;4.17;2.23;;;;;;;24.95;44.44;98426.72;124275;1104;64371;-63
2021/05/17 00:14:30;;;;;;;4.57;1.90;;;;;;;24.97;44.27;98453.13;124251;1097;64371;-63
2021/05/17 00:17:00;;;;;;;3.73;2.00;;;;;;;24.96;44.31;98451.52;124258;1100;64319;-63
2021/05/17 00:19:30;;;;;;;5.85;1.90;;;;;;;24.97;44.53;98455.80;124242;1097;64291;-63
2021/05/17 00:21:59;;;;;;;6.85;1.90;;;;;;;24.97;44.39;98461.12;124585;1096;64255;-63
2021/05/17 00:24:27;;;;;;;5.07;1.90;;;;;;;24.96;44.33;98472.81;124298;1104;64346;-63
2021/05/17 00:26:56;;;;;;;6.77;2.63;;;;;;;24.97;44.16;98473.61;124168;1097;64332;-61
2021/05/17 00:29:25;;;;;;;4.37;2.10;;;;;;;24.97;44.37;98477.09;124318;1104;64518;-61
2021/05/17 00:31:54;;;;;;;5.63;1.93;;;;;;;24.96;44.41;98483.47;124288;1105;64492;-62
2021/05/17 00:34:24;;;;;;;3.40;1.90;;;;;;;24.96;44.74;98486.13;124213;1097;64428;-62
2021/05/17 00:36:56;;;;;;;3.80;2.07;;;;;;;24.96;44.22;98499.44;124300;1096;64265;-62
2021/05/17 00:39:25;;;;;;;4.30;2.05;;;;;;;24.97;44.41;98509.05;124310;1104;64355;-62
2021/05/17 00:42:14;;;;;;;3.75;2.15;;;;;;;24.97;44.53;98501.06;124242;1098;64316;-63
2021/05/17 00:44:47;;;;;;;5.00;2.20;;;;;;;24.97;44.58;98486.92;124315;1097;64397;-62
2021/05/17 00:47:16;;;;;;;5.30;2.10;;;;;;;24.98;44.61;98491.20;124378;1096;64313;-63
2021/05/17 00:49:46;;;;;;;6.90;2.47;;;;;;;24.97;44.67;98494.91;124319;1104;64294;-63
2021/05/17 00:52:18;;;;;;;2.93;1.87;;;;;;;24.97;44.43;98501.06;124270;1096;64390;-62
2021/05/17 00:54:48;;;;;;;4.17;2.20;;;;;;;24.98;44.46;98510.67;124318;1104;64404;-62
2021/05/17 00:57:17;;;;;;;4.00;1.67;;;;;;;24.97;44.33;98511.71;124313;1104;64425;-62
2021/05/17 00:59:46;;;;;;;2.60;1.85;;;;;;;24.98;44.46;98518.66;124258;1104;64251;-61
2021/05/17 01:02:17;;;;;;;6.73;2.30;;;;;;;24.98;44.43;98517.84;124274;1096;64419;-61
2021/05/17 01:05:04;;;;;;;2.70;1.95;;;;;;;24.98;44.34;98533.81;124376;1096;64342;-61
2021/05/17 01:07:35;;;;;;;4.40;2.13;;;;;;;24.99;44.37;98535.44;124326;1104;64502;-61
2021/05/17 01:10:05;;;;;;;3.73;2.30;;;;;;;24.99;44.25;98538.09;124240;1104;64434;-61
2021/05/17 01:12:34;;;;;;;4.20;1.90;;;;;;;24.99;44.51;98552.23;124250;1096;64326;-59
2021/05/17 01:15:05;;;;;;;3.47;2.20;;;;;;;24.98;44.48;98542.63;124319;1096;64335;-59
2021/05/17 01:17:36;;;;;;;4.10;2.35;;;;;;;24.99;44.26;98546.91;124261;1104;64335;-60
2021/05/17 01:20:09;;;;;;;6.20;2.50;;;;;;;24.99;44.38;98557.56;124291;1096;64279;-58
2021/05/17 01:25:23;;;;;;;5.73;2.77;;;;;;;25.00;44.47;98555.70;124248;1104;64354;-59
2021/05/17 01:27:52;;;;;;;3.85;2.50;;;;;;;24.99;44.71;98543.42;124333;1105;64461;-59
2021/05/17 01:30:22;;;;;;;3.77;2.30;;;;;;;25.01;44.61;98526.19;124382;1104;64345;-60
2021/05/17 01:32:52;;;;;;;6.37;2.53;;;;;;;24.99;44.44;98498.98;124278;1104;64380;-59
2021/05/17 01:35:21;;;;;;;5.83;2.47;;;;;;;25.00;44.49;98473.14;124256;1096;64326;-60
2021/05/17 01:37:49;;;;;;;4.13;2.00;;;;;;;24.99;44.31;98445.72;124302;1104;64342;-59
2021/05/17 01:40:22;;;;;;;4.77;2.20;;;;;;;24.99;44.19;98443.05;124310;1104;64358;-59
2021/05/17 01:42:51;;;;;;;5.23;2.47;;;;;;;24.99;44.32;98469.69;124199;1104;64406;-60
2021/05/17 01:45:20;;;;;;;4.73;2.13;;;;;;;24.99;44.21;98458.20;124309;1104;64469;-59
2021/05/17 01:47:49;;;;;;;4.27;2.13;;;;;;;24.99;44.21;98469.69;124317;1104;64326;-59
2021/05/17 01:50:18;;;;;;;7.70;2.57;;;;;;;24.99;43.75;98490.98;124225;1104;64772;-60
2021/05/17 01:52:48;;;;;;;4.60;2.53;;;;;;;24.99;44.25;98488.33;124233;1096;64342;-58
2021/05/17 01:55:17;;;;;;;4.67;2.50;;;;;;;24.99;44.51;98467.02;124226;1096;64422;-59
2021/05/17 01:57:46;;;;;;;6.27;2.70;;;;;;;25.00;44.23;98433.20;124330;1104;64425;-59
2021/05/17 02:00:18;;;;;;;5.60;2.70;;;;;;;24.99;44.24;98418.27;124305;1104;64358;-58
2021/05/17 02:02:50;;;;;;;4.90;2.20;;;;;;;24.99;44.45;98413.77;124352;1096;64361;-59
2021/05/17 02:05:22;;;;;;;3.37;2.13;;;;;;;24.98;44.30;98406.82;124199;1104;64309;-60
2021/05/17 02:07:53;;;;;;;6.77;2.40;;;;;;;24.99;44.17;98394.30;124247;1104;64378;-59
2021/05/17 02:10:22;;;;;;;3.70;2.33;;;;;;;24.99;44.30;98373.00;124248;1096;64266;-59
2021/05/17 02:12:52;;;;;;;4.47;2.20;;;;;;;24.97;44.42;98373.25;124278;1096;64326;-59
2021/05/17 02:15:21;;;;;;;6.53;2.53;;;;;;;24.99;44.14;98359.69;124290;1096;64272;-60
2021/05/17 02:18:06;;;;;;;4.50;2.30;;;;;;;24.98;44.03;98339.42;124301;1096;64346;-60
2021/05/17 02:20:36;;;;;;;5.03;2.70;;;;;;;24.97;44.13;98343.13;124322;1104;64342;-59
2021/05/17 02:23:08;;;;;;;6.33;2.83;;;;;;;24.97;44.01;98330.64;124286;1104;64430;-60
2021/05/17 02:25:54;;;;;;;6.07;3.00;;;;;;;24.97;44.36;98354.61;124312;1096;64345;-61
2021/05/17 02:28:23;;;;;;;6.27;2.80;;;;;;;24.96;44.22;98368.97;124189;1096;64291;-60
2021/05/17 02:30:53;;;;;;;6.73;3.23;;;;;;;24.96;44.25;98371.63;124311;1097;64365;-61
2021/05/17 02:33:21;;;;;;;5.87;3.27;;;;;;;24.97;43.90;98365.26;124254;1097;64303;-61
2021/05/17 02:35:51;;;;;;;7.70;3.63;;;;;;;24.96;44.32;98368.97;124361;1096;64218;-60
2021/05/17 02:38:20;;;;;;;7.13;2.93;;;;;;;24.96;44.11;98371.63;124271;1096;64339;-61
2021/05/17 02:40:52;;;;;;;6.50;3.47;;;;;;;24.96;44.08;98376.95;124273;1104;64739;-60
2021/05/17 02:43:22;;;;;;;6.63;3.50;;;;;;;24.95;44.12;98384.12;124268;1099;64371;-60
2021/05/17 02:46:01;;;;;;;7.30;3.53;;;;;;;24.95;44.01;98384.12;124331;1096;64675;-60
2021/05/17 02:48:32;;;;;;;5.30;3.77;;;;;;;24.96;43.95;98403.58;124263;1099;64320;-61
2021/05/17 02:51:01;;;;;;;6.23;3.47;;;;;;;24.96;43.71;98406.24;124284;1104;64422;-60
2021/05/17 02:53:32;;;;;;;7.07;3.93;;;;;;;24.97;43.90;98415.85;124316;1104;64342;-61
2021/05/17 02:56:16;;;;;;;5.63;3.60;;;;;;;24.97;43.95;98431.83;124372;1104;64647;-61
2021/05/17 02:58:57;;;;;;;7.90;3.50;;;;;;;24.95;44.07;98424.06;124280;1096;64345;-61
2021/05/17 03:01:28;;;;;;;6.93;3.50;;;;;;;24.97;43.96;98415.02;124224;1096;64291;-60
2021/05/17 03:03:59;;;;;;;5.10;3.37;;;;;;;24.96;43.88;98408.91;124289;1104;64705;-59
2021/05/17 03:06:36;;;;;;;4.20;3.43;;;;;;;24.97;44.30;98399.05;124262;1104;64329;-60
2021/05/17 03:09:10;;;;;;;8.30;3.27;;;;;;;24.97;44.07;98393.73;124360;1104;64336;-60
2021/05/17 03:11:59;;;;;;;5.60;3.23;;;;;;;24.95;43.88;98370.01;124248;1096;64332;-60
2021/05/17 03:14:28;;;;;;;4.97;3.47;;;;;;;24.97;44.09;98367.92;124320;1097;64259;-61
2021/05/17 03:17:16;;;;;;;6.03;3.40;;;;;;;24.97;44.02;98391.89;124293;1097;64421;-61
2021/05/17 03:19:47;;;;;;;7.30;3.43;;;;;;;24.98;44.20;98438.77;124240;1104;64380;-61
2021/05/17 03:22:16;;;;;;;5.87;3.30;;;;;;;24.98;44.22;98500.02;124221;1104;64336;-59
2021/05/17 03:24:45;;;;;;;7.30;3.80;;;;;;;24.99;44.14;98527.44;124357;1096;64371;-59
2021/05/17 03:27:20;;;;;;;7.60;3.40;;;;;;;25.00;44.10;98531.73;124182;1104;64256;-58
2021/05/17 03:29:51;;;;;;;5.20;3.40;;;;;;;25.00;44.14;98483.80;124222;1104;64407;-62
2021/05/17 03:32:20;;;;;;;5.70;3.57;;;;;;;25.00;44.13;98457.98;124319;1104;64306;-61
2021/05/17 03:34:49;;;;;;;8.97;3.60;;;;;;;25.00;44.20;98442.02;124255;1104;64329;-61
2021/05/17 03:37:17;;;;;;;5.17;3.47;;;;;;;25.00;44.13;98403.91;124277;1104;64339;-61
2021/05/17 03:39:47;;;;;;;5.75;3.50;;;;;;;25.02;44.20;98388.50;124282;1104;64792;-60
2021/05/17 03:42:17;;;;;;;5.60;3.33;;;;;;;25.02;44.27;98399.16;124300;1104;64328;-61
2021/05/17 03:44:48;;;;;;;5.77;3.37;;;;;;;25.01;43.70;98393.03;124235;1096;64347;-61
2021/05/17 03:47:18;;;;;;;5.57;3.63;;;;;;;25.03;44.47;98393.61;124295;1105;64355;-61
2021/05/17 03:49:47;;;;;;;4.70;3.05;;;;;;;25.04;44.32;98360.61;124210;1096;64429;-61
2021/05/17 03:52:15;;;;;;;4.67;3.37;;;;;;;25.05;44.13;98348.91;124267;1096;64434;-59
2021/05/17 03:54:46;;;;;;;9.13;3.20;;;;;;;25.05;44.35;98391.52;124240;1096;64265;-60
2021/05/17 03:57:15;;;;;;;5.27;3.17;;;;;;;25.05;44.13;98433.31;124274;1096;64411;-60
2021/05/17 03:59:45;;;;;;;6.73;3.77;;;;;;;25.06;44.40;98456.23;124424;1096;64333;-60
2021/05/17 04:02:17;;;;;;;5.90;3.37;;;;;;;25.06;44.39;98475.70;124392;1096;64262;-60
2021/05/17 04:05:04;;;;;;;7.67;3.67;;;;;;;25.06;44.41;98497.01;124299;1104;64335;-62
2021/05/17 04:13:19;;;;;;;9.53;3.60;;;;;;;25.05;44.64;98415.49;124291;1096;64339;-60
2021/05/17 04:15:52;;;;;;;6.20;3.90;;;;;;;25.06;44.53;98418.95;124258;1096;64361;-61
2021/05/17 04:18:21;;;;;;;12.50;3.80;;;;;;;25.05;44.51;98404.84;124267;1104;64273;-60
2021/05/17 04:20:50;;;;;;;7.80;3.60;;;;;;;25.05;44.43;98399.52;124256;1097;64419;-59
2021/05/17 04:23:24;;;;;;;9.73;4.10;;;;;;;25.06;44.52;98381.66;124277;1099;64339;-61
2021/05/17 04:25:56;;;;;;;11.87;3.83;;;;;;;25.04;44.74;98368.60;124232;1096;64358;-61
2021/05/17 04:28:25;;;;;;;15.63;4.40;;;;;;;25.05;44.51;98354.23;124190;1096;64325;-60
2021/05/17 04:30:53;;;;;;;13.47;4.40;;;;;;;25.05;44.93;98346.25;124330;1097;64336;-59
2021/05/17 04:33:22;;;;;;;10.63;4.70;;;;;;;25.06;44.69;98328.41;124375;1104;64692;-59
2021/05/17 04:35:50;;;;;;;9.55;4.10;;;;;;;25.06;44.71;98307.92;124273;1097;64345;-57
2021/05/17 04:38:19;;;;;;;13.90;5.47;;;;;;;25.06;45.15;98296.45;124262;1097;64371;-57
2021/05/17 04:40:48;;;;;;;19.13;8.00;;;;;;;25.06;45.46;98275.97;124230;1096;64359;-55
2021/05/17 04:43:17;;;;;;;36.07;11.77;;;;;;;25.08;46.62;98260.56;124258;1096;64397;-59
2021/05/17 04:45:45;;;;;;;37.30;14.87;;;;;;;25.12;47.13;98263.53;124331;1104;64505;-59
2021/05/17 04:48:14;;;;;;;37.43;13.80;;;;;;;25.15;46.93;98264.93;124216;1096;64368;-59
2021/05/17 04:50:44;;;;;;;34.37;12.07;;;;;;;25.16;47.40;98253.23;124287;1104;64358;-61
2021/05/17 04:53:13;;;;;;;41.17;12.00;;;;;;;25.18;47.51;98257.25;124235;1096;64259;-61
2021/05/17 04:55:43;;;;;;;27.90;11.33;;;;;;;25.20;47.19;98264.99;124200;1096;64543;-60
2021/05/17 04:58:13;;;;;;;30.50;10.77;;;;;;;25.22;47.57;98268.23;124308;1104;64882;-60
2021/05/17 05:00:41;;;;;;;35.70;10.10;;;;;;;25.22;47.34;98268.23;124198;1104;64430;-59
2021/05/17 05:03:10;;;;;;;52.00;12.87;;;;;;;25.24;47.69;98272.28;124252;1096;64262;-61
2021/05/17 05:05:39;;;;;;;55.80;14.83;;;;;;;25.26;48.00;98277.35;124245;1096;64377;-61
2021/05/17 05:08:10;;;;;;;57.87;15.97;;;;;;;25.27;47.46;98286.17;124262;1096;66371;-62
2021/05/17 05:10:39;;;;;;;48.90;15.00;;;;;;;25.26;47.52;98279.22;124338;1096;65070;-63
2021/05/17 05:13:07;;;;;;;48.47;15.23;;;;;;;25.29;47.56;98300.85;124246;1098;64265;-64
2021/05/17 05:15:36;;;;;;;46.87;15.20;;;;;;;25.30;47.33;98320.33;124273;1099;64346;-63
2021/05/17 05:18:04;;;;;;;51.93;15.07;;;;;;;25.31;47.22;98343.25;124226;1104;64361;-64
2021/05/17 05:20:36;;;;;;;65.70;15.55;;;;;;;25.32;47.05;98382.17;124297;1096;64305;-62
2021/05/17 05:23:11;;;;;;;53.77;15.00;;;;;;;25.32;47.30;98417.60;124337;1096;64294;-63
2021/05/17 05:28:27;;;;;;;60.63;14.70;;;;;;;25.34;47.24;98439.48;124110;1104;64336;-63
2021/05/17 05:31:01;;;;;;;53.07;14.87;;;;;;;25.35;47.35;98451.77;124191;1098;64330;-60
2021/05/17 05:33:29;;;;;;;51.60;14.67;;;;;;;25.37;47.22;98457.67;124313;1097;64367;-59
2021/05/17 05:35:59;;;;;;;47.70;14.15;;;;;;;25.38;47.30;98455.83;124406;1097;64288;-60
2021/05/17 05:38:34;;;;;;;42.77;13.53;;;;;;;25.39;47.06;98465.41;124349;1096;64275;-60
2021/05/17 05:41:14;;;;;;;50.97;14.00;;;;;;;25.38;47.12;98453.95;124277;1096;64503;-59
2021/05/17 05:43:43;;;;;;;61.93;14.37;;;;;;;25.41;47.13;98457.20;124429;1104;64405;-61
2021/05/17 05:46:12;;;;;;;52.03;14.03;;;;;;;25.41;46.97;98449.20;124324;1104;64444;-61
2021/05/17 05:48:47;;;;;;;47.20;13.40;;;;;;;25.40;47.16;98464.36;124281;1104;64515;-61
2021/05/17 05:51:22;;;;;;;47.40;12.73;;;;;;;25.39;46.80;98458.24;124295;1096;64344;-61
2021/05/17 05:53:51;;;;;;;42.65;13.60;;;;;;;25.41;47.08;98450.00;124305;1104;64262;-61
2021/05/17 05:56:20;;;;;;;50.27;13.43;;;;;;;25.41;46.87;98455.33;124267;1096;64265;-61
2021/05/17 05:58:49;;;;;;;48.77;14.07;;;;;;;25.41;46.70;98441.21;124213;1096;64423;-61
2021/05/17 06:01:18;;;;;;;51.10;12.20;;;;;;;25.41;46.96;98442.00;124238;1104;64518;-60
2021/05/17 06:03:47;;;;;;;41.47;12.07;;;;;;;25.41;46.68;98463.32;124306;1096;64321;-60
2021/05/17 06:06:16;;;;;;;46.00;12.83;;;;;;;25.41;46.65;98465.98;124338;1104;64336;-61
2021/05/17 06:08:45;;;;;;;41.40;12.97;;;;;;;25.41;46.65;98471.31;124265;1096;64342;-59
2021/05/17 06:11:14;;;;;;;41.33;11.93;;;;;;;25.41;46.45;98473.19;124275;1104;64484;-60
2021/05/17 06:13:44;;;;;;;40.03;10.90;;;;;;;25.42;46.77;98474.80;124395;1096;64336;-61
2021/05/17 06:16:15;;;;;;;38.10;11.37;;;;;;;25.41;46.33;98478.52;124312;1096;64323;-60
2021/05/17 06:18:44;;;;;;;53.43;11.70;;;;;;;25.42;46.51;98474.80;124363;1104;64291;-60
2021/05/17 06:21:13;;;;;;;34.27;10.27;;;;;;;25.42;46.28;98474.80;124294;1096;64358;-60
2021/05/17 06:23:44;;;;;;;41.23;11.30;;;;;;;25.43;46.25;98471.89;124213;1096;64445;-60
2021/05/17 06:26:13;;;;;;;39.20;11.10;;;;;;;25.43;46.29;98476.42;124293;1104;64431;-59
2021/05/17 06:28:41;;;;;;;43.87;10.63;;;;;;;25.42;45.99;98466.81;124237;1104;64339;-60
2021/05/17 06:31:12;;;;;;;40.93;10.17;;;;;;;25.43;46.20;98484.42;124292;1104;64335;-61
2021/05/17 06:33:44;;;;;;;37.23;9.57;;;;;;;25.43;46.20;98487.08;124302;1104;64268;-60
2021/05/17 06:36:15;;;;;;;33.93;10.17;;;;;;;25.43;46.09;98489.75;124337;1104;64498;-61
2021/05/17 06:38:44;;;;;;;36.25;10.55;;;;;;;25.43;46.18;98489.75;124289;1096;64306;-60
2021/05/17 06:41:13;;;;;;;38.73;10.70;;;;;;;25.42;45.98;98485.46;124299;1096;64332;-60
2021/05/17 06:43:42;;;;;;;31.93;9.80;;;;;;;25.43;45.65;98485.21;124277;1096;64346;-60
2021/05/17 06:46:11;;;;;;;35.07;9.83;;;;;;;25.43;45.87;98484.42;124318;1096;64325;-59
2021/05/17 06:48:43;;;;;;;33.13;9.23;;;;;;;25.42;45.67;98493.45;124277;1104;64371;-60
2021/05/17 06:51:16;;;;;;;32.87;9.27;;;;;;;25.42;45.81;98496.13;124266;1104;64425;-61
2021/05/17 06:53:48;;;;;;;29.10;10.00;;;;;;;25.43;45.62;98503.07;124287;1104;64319;-61
2021/05/17 06:56:25;;;;;;;32.67;9.10;;;;;;;25.42;45.82;98504.11;124288;1096;64214;-62
2021/05/17 07:01:27;;;;;;;34.93;10.43;;;;;;;25.42;46.13;98504.11;124298;1096;64300;-60
2021/05/17 07:03:56;;;;;;;28.40;9.10;;;;;;;25.42;45.85;98499.58;124236;1096;64531;-59
2021/05/17 07:06:26;;;;;;;31.53;8.77;;;;;;;25.43;45.65;98511.06;124345;1096;64345;-59
2021/05/17 07:14:46;;;;;;;30.63;8.53;;;;;;;25.41;45.64;98510.48;124261;1096;64285;-60
2021/05/17 07:17:16;;;;;;;29.57;8.83;;;;;;;25.41;45.12;98510.48;124285;1096;64336;-60
2021/05/17 07:19:46;;;;;;;30.03;9.27;;;;;;;25.40;45.52;98507.00;124296;1104;64271;-60
2021/05/17 07:25:05;;;;;;;26.17;8.20;;;;;;;25.41;45.86;98505.95;124349;1099;64291;-60
2021/05/17 07:27:34;;;;;;;24.10;7.65;;;;;;;25.42;45.50;98506.78;124268;1104;64892;-65
2021/05/17 07:30:05;;;;;;;25.60;9.00;;;;;;;25.42;45.37;98504.91;124283;1104;64502;-66
2021/05/17 07:32:33;;;;;;;30.97;8.33;;;;;;;25.42;45.42;98501.45;124289;1104;64410;-66
2021/05/17 07:35:02;;;;;;;28.73;8.10;;;;;;;25.42;45.38;98506.78;124314;1104;64361;-66
2021/05/17 07:37:32;;;;;;;24.43;8.20;;;;;;;25.41;45.63;98503.29;124228;1104;64827;-66
2021/05/17 07:40:01;;;;;;;29.43;8.63;;;;;;;25.43;45.35;98508.40;124242;1096;64338;-66
2021/05/17 07:42:30;;;;;;;27.90;8.47;;;;;;;25.43;45.35;98505.73;124305;1096;64556;-66
2021/05/17 07:45:02;;;;;;;25.80;8.30;;;;;;;25.42;45.41;98496.13;124317;1104;64358;-66
2021/05/17 07:47:31;;;;;;;24.50;8.10;;;;;;;25.43;45.33;98503.07;124307;1104;64355;-66
2021/05/17 07:50:01;;;;;;;26.87;7.90;;;;;;;25.42;45.46;98498.78;124265;1096;64274;-66
2021/05/17 07:52:30;;;;;;;22.70;8.30;;;;;;;25.43;45.51;98508.40;124305;1096;64346;-66
2021/05/17 07:55:02;;;;;;;30.03;8.00;;;;;;;25.43;45.54;98503.07;124289;1104;64409;-66
2021/05/17 07:57:31;;;;;;;21.27;6.83;;;;;;;25.44;45.41;98504.72;124392;1104;64434;-66
2021/05/17 07:59:59;;;;;;;22.83;7.03;;;;;;;25.43;45.25;98508.40;124330;1104;64333;-60
2021/05/17 08:02:28;;;;;;;21.20;7.60;;;;;;;25.44;45.51;98499.39;124284;1096;64434;-58
2021/05/17 08:04:56;;;;;;;26.17;8.50;;;;;;;25.44;45.42;98504.72;124265;1104;64355;-60
2021/05/17 08:07:25;;;;;;;26.77;7.50;;;;;;;25.43;45.75;98503.86;124255;1104;64342;-61
2021/05/17 08:09:54;;;;;;;23.23;7.13;;;;;;;25.44;45.21;98505.52;124339;1096;64356;-59
2021/05/17 08:12:23;;;;;;;28.57;7.40;;;;;;;25.44;45.15;98502.84;124318;1096;64337;-59
2021/05/17 08:14:53;;;;;;;23.13;7.97;;;;;;;25.45;45.55;98507.13;124287;1104;64291;-59
2021/05/17 08:17:22;;;;;;;23.70;7.90;;;;;;;25.46;45.27;98502.63;124307;1104;64432;-60
2021/05/17 08:19:50;;;;;;;21.50;6.90;;;;;;;25.47;45.20;98514.91;124403;1096;64432;-59
2021/05/17 08:22:20;;;;;;;25.63;7.07;;;;;;;25.47;45.25;98512.25;124319;1096;64371;-59
2021/05/17 08:24:48;;;;;;;23.43;6.83;;;;;;;25.46;45.39;98518.63;124245;1096;64416;-60
2021/05/17 08:27:17;;;;;;;22.43;6.70;;;;;;;25.47;45.21;98514.91;124299;1096;64368;-58
2021/05/17 08:29:48;;;;;;;21.50;6.90;;;;;;;25.46;45.59;98518.63;124228;1096;64336;-59
2021/05/17 08:32:17;;;;;;;21.20;6.57;;;;;;;25.47;45.28;98521.03;124293;1096;64361;-59
2021/05/17 08:34:47;;;;;;;22.57;7.00;;;;;;;25.47;45.39;98514.91;124265;1104;64341;-58
2021/05/17 08:37:15;;;;;;;23.13;7.17;;;;;;;25.48;45.10;98519.20;124225;1096;64303;-59
2021/05/17 08:39:46;;;;;;;21.97;6.37;;;;;;;25.48;45.45;98511.20;124378;1096;64331;-60
2021/05/17 08:42:32;;;;;;;26.50;7.17;;;;;;;25.48;45.26;98521.86;124250;1104;64370;-59
2021/05/17 08:45:01;;;;;;;22.47;7.73;;;;;;;25.48;45.30;98516.53;124346;1096;64230;-59
2021/05/17 08:47:30;;;;;;;25.65;7.10;;;;;;;25.48;45.25;98512.00;124329;1104;64339;-59
2021/05/17 08:49:59;;;;;;;21.37;7.00;;;;;;;25.49;45.34;98507.48;124308;1096;64316;-59
2021/05/17 08:52:31;;;;;;;25.20;6.90;;;;;;;25.49;45.61;98496.83;124290;1096;64396;-58
2021/05/17 08:54:59;;;;;;;21.53;7.73;;;;;;;25.49;45.46;98502.16;124249;1104;64316;-60
2021/05/17 08:57:28;;;;;;;22.93;7.03;;;;;;;25.49;45.46;98500.29;124231;1104;64227;-60
2021/05/17 08:59:56;;;;;;;16.03;5.97;;;;;;;25.50;45.35;98501.12;124299;1104;64362;-59
2021/05/17 09:02:31;;;;;;;20.40;6.80;;;;;;;25.50;45.42;98506.45;124264;1096;64368;-59
2021/05/17 09:05:29;;;;;;;20.03;6.90;;;;;;;25.50;45.47;98509.91;124319;1104;64441;-59
2021/05/17 09:08:01;;;;;;;19.13;6.50;;;;;;;25.49;45.38;98508.28;124280;1104;65683;-59
2021/05/17 09:10:35;;;;;;;21.13;6.53;;;;;;;25.50;45.53;98509.91;124276;1104;64525;-59
2021/05/17 09:13:04;;;;;;;14.20;6.25;;;;;;;25.50;45.52;98512.57;124301;1104;64326;-58
2021/05/17 09:15:33;;;;;;;23.37;7.00;;;;;;;25.51;45.50;98513.39;124297;1104;64224;-59
2021/05/17 09:18:15;;;;;;;20.17;5.77;;;;;;;25.51;45.40;98516.86;124267;1096;64338;-59
2021/05/17 09:20:49;;;;;;;19.83;6.68;;;;;;;25.52;45.45;98512.35;124234;1104;64497;-66
2021/05/17 09:23:28;;;;;;;15.87;5.80;;;;;;;25.53;45.40;98508.64;124242;1104;64265;-65
2021/05/17 09:26:12;;;;;;;19.00;6.43;;;;;;;25.52;45.64;98501.69;124280;1096;64342;-59
2021/05/17 09:28:46;;;;;;;14.65;5.65;;;;;;;25.52;45.68;98507.81;124212;1097;64217;-59
2021/05/17 09:31:19;;;;;;;20.73;6.37;;;;;;;25.53;45.46;98508.64;124329;1097;64337;-59
2021/05/17 09:33:55;;;;;;;17.23;6.40;;;;;;;25.54;45.38;98510.26;124267;1104;64288;-60
2021/05/17 09:36:36;;;;;;;23.23;6.70;;;;;;;25.53;45.67;98513.97;124237;1096;64339;-59
2021/05/17 09:39:12;;;;;;;18.53;6.00;;;;;;;25.54;45.78;98515.59;124280;1096;64650;-60
2021/05/17 09:41:55;;;;;;;15.03;5.37;;;;;;;25.54;45.63;98504.93;124455;1104;64355;-60
2021/05/17 09:44:30;;;;;;;16.23;5.60;;;;;;;25.55;45.51;98506.55;124260;1104;64370;-59
2021/05/17 09:47:09;;;;;;;18.70;6.37;;;;;;;25.55;45.69;98506.55;124272;1096;64390;-58
2021/05/17 09:49:41;;;;;;;17.93;6.20;;;;;;;25.55;45.77;98517.21;124313;1096;64339;-60
2021/05/17 09:52:22;;;;;;;16.60;5.93;;;;;;;25.55;45.71;98511.88;124216;1096;64335;-59
2021/05/17 09:54:59;;;;;;;16.27;5.77;;;;;;;25.55;45.91;98519.88;124309;1104;64337;-60
2021/05/17 09:57:43;;;;;;;13.67;5.13;;;;;;;25.54;45.70;98511.05;124216;1104;64336;-60
2021/05/17 10:00:29;;;;;;;19.25;6.30;;;;;;;25.56;45.94;98515.34;124284;1104;64333;-60
2021/05/17 10:03:00;;;;;;;15.35;5.60;;;;;;;25.56;45.87;98523.34;124291;1104;64492;-59
2021/05/17 10:05:38;;;;;;;16.55;6.00;;;;;;;25.56;45.75;98528.67;124307;1104;64345;-60
2021/05/17 10:08:23;;;;;;;16.20;6.10;;;;;;;25.57;46.02;98532.95;124214;1104;64457;-59
2021/05/17 10:10:54;;;;;;;19.67;6.17;;;;;;;25.56;45.92;98524.16;124243;1104;64342;-59
2021/05/17 10:13:24;;;;;;;17.27;5.77;;;;;;;25.58;45.89;98523.91;124259;1096;64387;-59
2021/05/17 10:15:54;;;;;;;15.57;5.97;;;;;;;25.57;45.96;98531.11;124331;1104;64489;-59
2021/05/17 10:18:26;;;;;;;17.85;5.90;;;;;;;25.57;46.18;98533.78;124288;1105;65963;-59
2021/05/17 10:20:57;;;;;;;15.23;5.93;;;;;;;25.58;45.95;98531.91;124250;1104;64227;-60
2021/05/17 10:23:26;;;;;;;15.13;5.70;;;;;;;25.59;45.74;98534.35;124275;1104;64268;-60
2021/05/17 10:26:25;;;;;;;15.95;5.10;;;;;;;25.59;46.11;98539.69;124294;1096;64631;-59
2021/05/17 10:29:00;;;;;;;14.23;5.63;;;;;;;25.60;46.29;98535.97;124164;1104;64310;-60
2021/05/17 10:31:31;;;;;;;14.70;5.83;;;;;;;25.63;46.27;98534.68;124175;1096;64667;-65
2021/05/17 10:34:04;;;;;;;13.10;5.17;;;;;;;25.64;46.36;98539.76;124246;1097;64470;-67
2021/05/17 10:36:56;;;;;;;15.83;5.20;;;;;;;25.67;46.47;98533.16;124245;1104;64224;-61
2021/05/17 10:39:32;;;;;;;21.63;6.07;;;;;;;25.70;46.70;98543.36;124249;1104;64387;-66
2021/05/17 10:42:36;;;;;;;13.83;4.77;;;;;;;25.71;46.57;98546.81;124328;1096;64330;-59
2021/05/17 10:48:15;;;;;;;12.83;4.83;;;;;;;25.72;46.91;98556.44;124460;1096;64821;-58
2021/05/17 10:50:47;;;;;;;16.10;4.95;;;;;;;25.74;46.81;98559.67;124285;1096;64329;-58
2021/05/17 10:53:54;;;;;;;15.03;5.40;;;;;;;25.76;47.23;98561.08;124303;1096;64374;-59
2021/05/17 10:56:47;;;;;;;15.17;4.50;;;;;;;25.77;47.05;98569.87;124278;1104;64434;-59
2021/05/17 11:02:18;;;;;;;15.87;5.60;;;;;;;25.81;47.08;98568.35;124267;1096;64259;-59
2021/05/17 11:04:49;;;;;;;11.77;4.90;;;;;;;25.84;46.89;98565.22;124289;1096;64330;-59
2021/05/17 11:07:27;;;;;;;13.00;5.00;;;;;;;25.86;47.04;98570.30;124262;1104;64361;-59
2021/05/17 11:10:13;;;;;;;13.37;4.70;;;;;;;25.87;47.04;98566.58;124328;1104;64339;-66
2021/05/17 11:12:42;;;;;;;;;;;;;;;25.89;47.39;98575.98;124302;1104;64262;-66
2021/05/17 11:15:52;;;;;;;12.40;4.63;;;;;;;25.88;47.38;98571.69;124264;1104;64343;-67
2021/05/17 11:18:22;;;;;;;12.40;4.90;;;;;;;25.89;47.15;98589.31;124269;1096;64412;-68
2021/05/17 11:20:52;;;;;;;9.33;3.67;;;;;;;25.92;47.06;98590.69;124295;1104;64190;-68
2021/05/17 11:23:41;;;;;;;9.60;4.33;;;;;;;25.93;47.22;98587.80;124246;1105;64374;-66
2021/05/17 11:26:11;;;;;;;7.47;4.30;;;;;;;25.95;47.10;98590.22;124294;1104;64358;-57
2021/05/17 11:28:40;;;;;;;17.40;5.53;;;;;;;25.95;47.10;98588.38;124224;1104;64297;-58
2021/05/17 11:34:00;;;;;;;15.30;4.80;;;;;;;26.00;47.04;98597.52;124272;1104;64392;-57
2021/05/17 11:36:48;;;;;;;9.00;4.23;;;;;;;26.00;47.29;98581.52;124310;1096;64981;-58
2021/05/17 11:39:19;;;;;;;9.30;4.13;;;;;;;26.00;47.09;98587.64;124335;1096;64342;-62
2021/05/17 11:41:57;;;;;;;8.67;4.10;;;;;;;26.02;47.26;98584.76;124278;1104;64323;-57
2021/05/17 11:44:31;;;;;;;9.67;3.97;;;;;;;26.02;47.03;98590.09;124287;1105;64339;-56
2021/05/17 11:47:03;;;;;;;10.45;4.40;;;;;;;26.03;47.10;98586.38;124313;1104;64654;-58
2021/05/17 11:49:33;;;;;;;8.07;3.77;;;;;;;26.03;47.09;98594.38;124246;1104;64231;-58
2021/05/17 11:52:10;;;;;;;9.43;4.17;;;;;;;26.05;46.98;98577.08;124325;1096;64336;-57
2021/05/17 11:54:52;;;;;;;11.65;4.25;;;;;;;26.06;46.87;98580.54;124267;1104;64198;-58
2021/05/17 11:57:27;;;;;;;9.83;4.37;;;;;;;26.07;47.03;98592.83;124257;1104;64371;-59
2021/05/17 12:00:08;;;;;;;8.55;3.90;;;;;;;26.08;47.09;98599.78;124221;1104;64453;-58
2021/05/17 12:02:48;;;;;;;6.97;3.83;;;;;;;26.08;46.95;98611.28;124314;1104;64422;-58
2021/05/17 12:05:16;;;;;;;6.50;3.87;;;;;;;26.10;47.01;98611.03;124323;1096;64381;-58
2021/05/17 12:07:50;;;;;;;10.53;4.40;;;;;;;26.10;46.94;98609.19;124417;1096;64236;-58
2021/05/17 12:10:20;;;;;;;11.23;4.33;;;;;;;26.11;46.82;98620.66;124295;1096;64428;-58
2021/05/17 12:12:52;;;;;;;11.90;4.00;;;;;;;26.13;46.91;98626.59;124292;1096;64345;-58
2021/05/17 12:15:22;;;;;;;7.80;3.63;;;;;;;26.13;46.97;98626.59;124279;1096;64361;-59